createdAt,value
2022-09-12T00:01:28.663Z,15.81
2022-09-12T00:04:00.235Z,15.79
2022-09-12T00:06:31.083Z,15.75
2022-09-12T00:09:03.022Z,15.72
2022-09-12T00:11:31.249Z,15.68
2022-09-12T00:14:01.980Z,15.66
2022-09-12T00:16:33.150Z,15.66
2022-09-12T00:19:02.273Z,15.63
2022-09-12T00:21:31.150Z,15.61
2022-09-12T00:24:00.718Z,15.59
2022-09-12T00:26:28.839Z,15.57
2022-09-12T00:28:57.009Z,15.55
2022-09-12T00:31:27.674Z,15.53
2022-09-12T00:34:00.663Z,15.49
2022-09-12T00:36:32.359Z,15.49
2022-09-12T00:39:03.030Z,15.47
2022-09-12T00:41:34.287Z,15.46
2022-09-12T00:44:05.669Z,15.43
2022-09-12T00:46:39.855Z,15.42
2022-09-12T00:49:15.547Z,15.42
2022-09-12T00:51:56.642Z,15.40
2022-09-12T00:54:31.865Z,15.39
2022-09-12T00:57:05.870Z,15.38
2022-09-12T00:59:39.749Z,15.36
2022-09-12T01:02:08.745Z,15.33
2022-09-12T01:04:39.945Z,15.32
2022-09-12T01:07:09.859Z,15.29
2022-09-12T01:09:41.058Z,15.29
2022-09-12T01:12:09.944Z,15.27
2022-09-12T01:14:38.756Z,15.27
2022-09-12T01:17:06.968Z,15.27
2022-09-12T01:20:18.307Z,15.23
2022-09-12T01:23:11.067Z,15.19
2022-09-12T01:26:02.039Z,15.16
2022-09-12T01:29:00.780Z,15.15
2022-09-12T01:31:37.833Z,15.15
2022-09-12T01:34:18.424Z,15.14
2022-09-12T01:36:57.550Z,15.12
2022-09-12T01:39:34.143Z,15.11
2022-09-12T01:42:12.258Z,15.10
2022-09-12T01:44:49.537Z,15.07
2022-09-12T01:47:25.549Z,15.05
2022-09-12T01:50:02.082Z,15.03
2022-09-12T01:52:38.173Z,15.01
2022-09-12T01:55:12.894Z,15.00
2022-09-12T01:57:45.989Z,15.00
2022-09-12T02:00:15.422Z,14.98
2022-09-12T02:02:52.904Z,14.98
2022-09-12T02:05:27.714Z,14.96
2022-09-12T02:08:02.834Z,14.94
2022-09-12T02:10:35.517Z,14.92
2022-09-12T02:13:10.666Z,14.91
2022-09-12T02:15:43.143Z,14.90
2022-09-12T02:18:16.018Z,14.87
2022-09-12T02:20:49.013Z,14.86
2022-09-12T02:23:23.729Z,14.83
2022-09-12T02:25:56.233Z,14.83
2022-09-12T02:28:29.305Z,14.80
2022-09-12T02:31:07.165Z,14.82
2022-09-12T02:33:49.208Z,14.80
2022-09-12T02:36:30.867Z,14.77
2022-09-12T02:39:00.182Z,14.76
2022-09-12T02:41:28.451Z,14.75
2022-09-12T02:43:56.956Z,14.74
2022-09-12T02:46:30.779Z,14.73
2022-09-12T02:49:00.360Z,14.73
2022-09-12T02:51:28.913Z,14.73
2022-09-12T02:53:57.243Z,14.72
2022-09-12T02:56:28.831Z,14.71
2022-09-12T02:59:00.649Z,14.71
2022-09-12T03:01:51.195Z,14.69
2022-09-12T03:04:48.899Z,14.68
2022-09-12T03:07:31.526Z,14.67
2022-09-12T03:10:10.394Z,14.66
2022-09-12T03:12:49.622Z,14.65
2022-09-12T03:15:39.067Z,14.63
2022-09-12T03:18:21.434Z,14.62
2022-09-12T03:21:01.036Z,14.62
2022-09-12T03:23:38.040Z,14.62
2022-09-12T03:26:11.890Z,14.59
2022-09-12T03:28:41.672Z,14.57
2022-09-12T03:31:20.937Z,14.52
2022-09-12T03:33:49.173Z,14.49
2022-09-12T03:36:24.091Z,14.47
2022-09-12T03:38:52.485Z,14.46
2022-09-12T03:41:21.127Z,14.47
2022-09-12T03:43:49.672Z,14.49
2022-09-12T03:46:17.707Z,14.51
2022-09-12T03:48:45.917Z,14.52
2022-09-12T03:51:14.048Z,14.52
2022-09-12T03:53:43.535Z,14.53
2022-09-12T03:56:13.303Z,14.55
2022-09-12T03:58:42.568Z,14.56
2022-09-12T04:01:12.877Z,14.58
2022-09-12T04:03:41.626Z,14.57
2022-09-12T04:06:11.658Z,14.58
2022-09-12T04:08:40.282Z,14.58
2022-09-12T04:11:12.435Z,14.59
2022-09-12T04:13:42.480Z,14.59
2022-09-12T04:16:12.051Z,14.59
2022-09-12T04:18:40.371Z,14.59
2022-09-12T04:21:11.422Z,14.58
2022-09-12T04:23:39.496Z,14.57
2022-09-12T04:26:10.011Z,14.57
2022-09-12T04:28:39.487Z,14.57
2022-09-12T04:31:09.970Z,14.57
2022-09-12T04:33:38.273Z,14.56
2022-09-12T04:36:08.980Z,14.57
2022-09-12T04:38:38.364Z,14.57
2022-09-12T04:41:14.226Z,14.56
2022-09-12T04:43:42.574Z,14.57
2022-09-12T04:46:12.604Z,14.56
2022-09-12T04:48:40.876Z,14.57
2022-09-12T04:51:11.141Z,14.59
2022-09-12T04:53:39.651Z,14.60
2022-09-12T04:56:10.936Z,14.62
2022-09-12T04:58:40.385Z,14.66
2022-09-12T05:01:10.727Z,14.69
2022-09-12T05:03:39.594Z,14.71
2022-09-12T05:06:09.724Z,14.75
2022-09-12T05:08:38.278Z,14.79
2022-09-12T05:11:08.147Z,14.87
2022-09-12T05:13:36.833Z,14.94
2022-09-12T05:16:08.787Z,15.03
2022-09-12T05:18:38.276Z,15.12
2022-09-12T05:21:09.291Z,15.22
2022-09-12T05:23:37.855Z,15.32
2022-09-12T05:26:08.430Z,15.42
2022-09-12T05:28:40.236Z,15.53
2022-09-12T05:31:12.779Z,15.63
2022-09-12T05:33:44.942Z,15.74
2022-09-12T05:36:18.204Z,15.87
2022-09-12T05:38:47.306Z,15.95
2022-09-12T05:41:20.846Z,16.05
2022-09-12T05:43:54.580Z,16.13
2022-09-12T05:46:26.824Z,16.22
2022-09-12T05:48:56.876Z,16.30
2022-09-12T05:51:28.143Z,16.36
2022-09-12T05:53:59.216Z,16.44
2022-09-12T05:56:29.726Z,16.54
2022-09-12T05:59:00.015Z,16.59
2022-09-12T06:01:31.310Z,16.66
2022-09-12T06:04:01.813Z,16.73
2022-09-12T06:06:32.246Z,16.76
2022-09-12T06:09:02.945Z,16.79
2022-09-12T06:11:33.229Z,16.80
2022-09-12T06:14:02.676Z,16.84
2022-09-12T06:16:34.969Z,16.90
2022-09-12T06:19:06.620Z,16.92
2022-09-12T06:21:35.518Z,16.94
2022-09-12T06:24:03.947Z,16.98
2022-09-12T06:26:32.299Z,17.01
2022-09-12T06:29:02.199Z,17.07
2022-09-12T06:31:34.939Z,17.17
2022-09-12T06:34:06.216Z,17.23
2022-09-12T06:36:38.244Z,17.30
2022-09-12T06:39:09.745Z,17.37
2022-09-12T06:41:42.990Z,17.45
2022-09-12T06:44:15.530Z,17.53
2022-09-12T06:46:45.230Z,17.64
2022-09-12T06:49:14.160Z,17.72
2022-09-12T06:51:43.065Z,17.80
2022-09-12T06:54:18.258Z,17.86
2022-09-12T06:56:46.447Z,17.90
2022-09-12T06:59:14.716Z,17.96
2022-09-12T07:01:44.297Z,18.01
2022-09-12T07:04:12.864Z,18.07
2022-09-12T07:06:44.557Z,18.13
2022-09-12T07:09:16.273Z,18.17
2022-09-12T07:11:46.252Z,18.20
2022-09-12T07:14:15.731Z,18.25
2022-09-12T07:16:45.425Z,18.31
2022-09-12T07:19:13.580Z,18.35
2022-09-12T07:21:42.152Z,18.41
2022-09-12T07:24:11.488Z,18.49
2022-09-12T07:26:42.206Z,18.58
2022-09-12T07:32:07.578Z,18.78
2022-09-12T07:34:36.441Z,18.86
2022-09-12T07:37:04.680Z,18.97
2022-09-12T07:39:32.818Z,19.09
2022-09-12T07:42:01.441Z,19.19
2022-09-12T07:44:29.562Z,19.28
2022-09-12T07:46:57.677Z,19.38
2022-09-12T07:49:27.762Z,19.48
2022-09-12T07:51:55.833Z,19.61
2022-09-12T07:54:24.260Z,19.67
2022-09-12T07:56:52.483Z,19.70
2022-09-12T07:59:35.659Z,19.80
2022-09-12T08:02:17.174Z,19.92
2022-09-12T08:04:48.479Z,20.01
2022-09-12T08:07:18.247Z,20.12
2022-09-12T08:09:46.426Z,20.23
2022-09-12T08:12:15.110Z,20.28
2022-09-12T08:14:43.199Z,20.28
2022-09-12T08:17:11.298Z,20.33
2022-09-12T08:19:39.427Z,20.39
2022-09-12T08:22:09.787Z,20.47
2022-09-12T08:24:39.135Z,20.54
2022-09-12T08:27:07.558Z,20.64
2022-09-12T08:29:35.639Z,20.75
2022-09-12T08:32:04.666Z,20.89
2022-09-12T08:34:32.762Z,21.07
2022-09-12T08:37:00.939Z,21.24
2022-09-12T08:39:32.656Z,21.35
2022-09-12T08:42:04.033Z,21.45
2022-09-12T08:45:17.502Z,21.59
2022-09-12T08:47:48.219Z,21.71
2022-09-12T08:50:21.131Z,21.82
2022-09-12T08:52:58.478Z,21.94
2022-09-12T08:55:35.039Z,22.01
2022-09-12T08:58:12.063Z,22.05
2022-09-12T09:00:55.076Z,22.05
2022-09-12T09:04:20.577Z,22.21
2022-09-12T09:07:34.530Z,22.39
2022-09-12T09:10:19.474Z,22.39
2022-09-12T09:13:00.796Z,22.33
2022-09-12T09:15:51.410Z,22.26
2022-09-12T09:18:24.600Z,22.27
2022-09-12T09:20:57.600Z,22.36
2022-09-12T09:23:30.814Z,22.54
2022-09-12T09:26:07.172Z,22.77
2022-09-12T09:28:43.477Z,22.88
2022-09-12T09:31:17.140Z,23.07
2022-09-12T09:33:49.275Z,23.26
2022-09-12T09:36:23.932Z,23.35
2022-09-12T09:39:00.955Z,23.41
2022-09-12T09:41:48.301Z,23.39
2022-09-12T09:44:18.179Z,23.34
2022-09-12T09:46:46.329Z,23.27
2022-09-12T09:49:15.500Z,23.25
2022-09-12T09:51:44.360Z,23.25
2022-09-12T09:54:21.320Z,23.17
2022-09-12T09:56:49.475Z,23.05
2022-09-12T09:59:21.780Z,22.98
2022-09-12T10:01:54.830Z,22.97
2022-09-12T10:04:26.011Z,22.92
2022-09-12T10:06:55.873Z,22.90
2022-09-12T10:09:27.158Z,22.90
2022-09-12T10:11:57.576Z,22.92
2022-09-12T10:14:37.679Z,22.97
2022-09-12T10:17:28.684Z,22.97
2022-09-12T10:20:19.907Z,22.99
2022-09-12T10:22:49.676Z,23.01
2022-09-12T10:25:20.146Z,23.13
2022-09-12T10:27:57.757Z,23.25
2022-09-12T10:30:29.617Z,23.46
2022-09-12T10:33:08.449Z,23.58
2022-09-12T10:35:47.276Z,23.66
2022-09-12T10:38:23.400Z,23.72
2022-09-12T10:40:59.796Z,23.84
2022-09-12T10:43:31.315Z,24.00
2022-09-12T10:46:21.986Z,24.16
2022-09-12T10:48:52.717Z,24.29
2022-09-12T10:51:29.854Z,24.45
2022-09-12T10:54:00.971Z,24.65
2022-09-12T10:56:34.945Z,24.76
2022-09-12T10:59:22.662Z,24.86
2022-09-12T11:02:01.271Z,24.95
2022-09-12T11:04:44.691Z,25.05
2022-09-12T11:07:43.458Z,25.17
2022-09-12T11:10:27.120Z,25.39
2022-09-12T11:13:11.644Z,25.49
2022-09-12T11:16:02.713Z,25.55
2022-09-12T11:18:54.308Z,25.55
2022-09-12T11:21:40.215Z,25.55
2022-09-12T11:24:29.277Z,25.57
2022-09-12T11:27:22.425Z,25.70
2022-09-12T11:29:52.483Z,25.91
2022-09-12T11:32:44.621Z,26.08
2022-09-12T11:35:24.434Z,26.20
2022-09-12T11:38:23.440Z,26.51
2022-09-12T11:40:58.135Z,26.79
2022-09-12T11:43:41.330Z,26.91
2022-09-12T11:46:19.317Z,27.14
2022-09-12T11:48:56.869Z,27.37
2022-09-12T11:51:30.976Z,27.66
2022-09-12T11:54:13.956Z,28.07
2022-09-12T11:56:47.299Z,28.41
2022-09-12T11:59:32.732Z,28.89
2022-09-12T12:02:01.937Z,29.12
2022-09-12T12:04:39.350Z,29.06
2022-09-12T12:07:12.421Z,28.97
2022-09-12T12:09:51.349Z,29.10
2022-09-12T12:12:25.676Z,29.31
2022-09-12T12:14:55.939Z,29.51
2022-09-12T12:17:26.985Z,29.56
2022-09-12T12:20:07.413Z,29.38
2022-09-12T12:22:37.361Z,29.42
2022-09-12T12:25:39.974Z,29.68
2022-09-12T12:28:08.380Z,29.73
2022-09-12T12:31:04.343Z,29.97
2022-09-12T12:34:23.507Z,30.43
2022-09-12T12:36:51.630Z,30.67
2022-09-12T12:40:05.800Z,30.79
2022-09-12T12:43:32.930Z,31.20
2022-09-12T12:46:09.284Z,31.44
2022-09-12T12:49:10.750Z,31.81
2022-09-12T12:52:06.036Z,32.32
2022-09-12T12:54:54.736Z,32.80
2022-09-12T12:57:47.425Z,32.78
2022-09-12T13:00:32.264Z,32.49
2022-09-12T13:03:04.273Z,32.61
2022-09-12T13:05:40.966Z,32.97
2022-09-12T13:08:12.180Z,33.52
2022-09-12T13:10:50.172Z,33.72
2022-09-12T13:13:27.294Z,33.78
2022-09-12T13:15:55.727Z,33.88
2022-09-12T13:18:28.646Z,34.12
2022-09-12T13:21:09.014Z,34.11
2022-09-12T13:23:37.568Z,34.05
2022-09-12T13:26:14.001Z,34.32
2022-09-12T13:28:43.469Z,34.20
2022-09-12T13:31:19.107Z,33.99
2022-09-12T13:33:50.954Z,33.81
2022-09-12T13:36:48.236Z,33.84
2022-09-12T13:39:21.528Z,34.02
2022-09-12T13:42:41.612Z,34.54
2022-09-12T13:45:16.859Z,35.20
2022-09-12T13:47:47.378Z,35.78
2022-09-12T13:50:21.293Z,35.72
2022-09-12T13:52:54.015Z,35.89
2022-09-12T13:55:31.475Z,35.89
2022-09-12T13:58:02.744Z,35.57
2022-09-12T14:00:34.939Z,35.22
2022-09-12T14:03:20.995Z,34.96
2022-09-12T14:05:57.557Z,35.29
2022-09-12T14:08:26.929Z,35.52
2022-09-12T14:10:55.413Z,35.58
2022-09-12T14:13:26.748Z,35.54
2022-09-12T14:15:59.825Z,35.47
2022-09-12T14:18:31.130Z,35.06
2022-09-12T14:21:10.494Z,35.13
2022-09-12T14:23:42.548Z,35.40
2022-09-12T14:26:13.847Z,35.58
2022-09-12T14:28:44.840Z,35.58
2022-09-12T14:31:25.470Z,34.77
2022-09-12T14:33:56.006Z,34.16
2022-09-12T14:36:26.550Z,33.74
2022-09-12T14:38:57.855Z,33.54
2022-09-12T14:41:30.754Z,32.96
2022-09-12T14:44:02.760Z,33.07
2022-09-12T14:46:36.110Z,33.67
2022-09-12T14:49:11.298Z,34.37
2022-09-12T14:51:42.010Z,34.59
2022-09-12T14:54:39.431Z,34.45
2022-09-12T14:57:33.307Z,33.71
2022-09-12T15:00:26.029Z,33.00
2022-09-12T15:02:56.224Z,32.66
2022-09-12T15:05:29.478Z,32.45
2022-09-12T15:08:01.406Z,32.28
2022-09-12T15:10:33.825Z,32.02
2022-09-12T15:13:17.312Z,31.77
2022-09-12T15:15:48.197Z,31.85
2022-09-12T15:18:18.769Z,32.13
2022-09-12T15:20:49.301Z,32.70
2022-09-12T15:23:30.996Z,33.23
2022-09-12T15:25:59.134Z,33.59
2022-09-12T15:28:27.853Z,34.04
2022-09-12T15:30:58.347Z,34.72
2022-09-12T15:33:27.841Z,34.56
2022-09-12T15:35:56.014Z,33.92
2022-09-12T15:38:26.581Z,33.23
2022-09-12T15:40:55.722Z,32.74
2022-09-12T15:43:26.293Z,32.42
2022-09-12T15:45:54.534Z,32.15
2022-09-12T15:48:27.306Z,31.81
2022-09-12T15:50:57.595Z,31.45
2022-09-12T15:53:26.115Z,31.82
2022-09-12T15:55:54.170Z,32.34
2022-09-12T15:58:22.213Z,32.46
2022-09-12T16:00:50.498Z,32.53
2022-09-12T16:03:24.811Z,32.13
2022-09-12T16:05:58.140Z,31.78
2022-09-12T16:08:26.931Z,31.70
2022-09-12T16:10:58.439Z,31.78
2022-09-12T16:13:29.285Z,31.83
2022-09-12T16:15:59.246Z,32.03
2022-09-12T16:18:27.805Z,32.29
2022-09-12T16:20:58.325Z,32.76
2022-09-12T16:23:26.414Z,33.27
2022-09-12T16:26:02.140Z,33.56
2022-09-12T16:28:30.735Z,33.51
2022-09-12T16:31:00.387Z,33.75
2022-09-12T16:33:29.617Z,34.00
2022-09-12T16:36:04.370Z,34.13
2022-09-12T16:38:33.709Z,34.03
2022-09-12T16:41:02.535Z,33.62
2022-09-12T16:43:31.962Z,33.24
2022-09-12T16:46:04.481Z,32.94
2022-09-12T16:48:33.672Z,32.17
2022-09-12T16:51:06.867Z,31.41
2022-09-12T16:53:36.930Z,30.88
2022-09-12T16:56:05.744Z,30.54
2022-09-12T16:58:38.482Z,30.26
2022-09-12T17:01:11.521Z,29.80
2022-09-12T17:03:40.300Z,30.02
2022-09-12T17:06:13.906Z,30.52
2022-09-12T17:08:44.497Z,30.67
2022-09-12T17:11:15.586Z,30.81
2022-09-12T17:14:03.907Z,30.36
2022-09-12T17:16:35.431Z,29.68
2022-09-12T17:19:04.355Z,29.25
2022-09-12T17:21:35.095Z,28.95
2022-09-12T17:24:03.714Z,28.57
2022-09-12T17:26:31.890Z,28.20
2022-09-12T17:29:03.195Z,27.79
2022-09-12T17:31:31.446Z,27.38
2022-09-12T17:34:00.760Z,27.01
2022-09-12T17:36:31.865Z,26.70
2022-09-12T17:39:02.820Z,26.40
2022-09-12T17:41:32.793Z,26.12
2022-09-12T17:44:03.529Z,25.86
2022-09-12T17:46:34.979Z,25.59
2022-09-12T17:49:05.251Z,25.36
2022-09-12T17:51:33.881Z,25.14
2022-09-12T17:54:07.226Z,24.94
2022-09-12T17:56:37.202Z,24.76
2022-09-12T17:59:07.317Z,24.62
2022-09-12T18:01:52.989Z,24.53
2022-09-12T18:04:21.292Z,24.44
2022-09-12T18:06:50.146Z,24.38
2022-09-12T18:09:23.249Z,24.32
2022-09-12T18:11:52.587Z,24.28
2022-09-12T18:14:21.117Z,24.23
2022-09-12T18:16:49.790Z,24.19
2022-09-12T18:19:18.717Z,24.14
2022-09-12T18:21:47.429Z,24.06
2022-09-12T18:24:15.982Z,23.96
2022-09-12T18:26:45.394Z,23.84
2022-09-12T18:29:16.795Z,23.76
2022-09-12T18:31:46.661Z,23.66
2022-09-12T18:34:15.223Z,23.61
2022-09-12T18:36:45.796Z,23.56
2022-09-12T18:39:14.095Z,23.50
2022-09-12T18:41:42.549Z,23.46
2022-09-12T18:44:13.169Z,23.39
2022-09-12T18:46:41.459Z,23.27
2022-09-12T18:49:10.629Z,23.14
2022-09-12T18:51:41.630Z,23.03
2022-09-12T18:54:14.441Z,22.97
2022-09-12T18:56:43.962Z,22.95
2022-09-12T18:59:14.861Z,22.95
2022-09-12T19:01:44.090Z,22.94
2022-09-12T19:04:13.766Z,22.91
2022-09-12T19:06:43.485Z,22.85
2022-09-12T19:09:13.989Z,22.79
2022-09-12T19:11:48.859Z,22.74
2022-09-12T19:14:20.560Z,22.69
2022-09-12T19:16:50.725Z,22.68
2022-09-12T19:19:19.198Z,22.66
2022-09-12T19:21:47.824Z,22.66
2022-09-12T19:24:17.038Z,22.66
2022-09-12T19:26:45.310Z,22.64
2022-09-12T19:29:14.664Z,22.60
2022-09-12T19:31:45.935Z,22.57
2022-09-12T19:34:15.329Z,22.56
2022-09-12T19:36:46.289Z,22.55
2022-09-12T19:39:16.192Z,22.53
2022-09-12T19:41:44.995Z,22.54
2022-09-12T19:44:14.119Z,22.54
2022-09-12T19:46:43.668Z,22.53
2022-09-12T19:49:13.352Z,22.54
2022-09-12T19:51:41.783Z,22.54
2022-09-12T19:54:10.486Z,22.56
2022-09-12T19:56:38.613Z,22.58
2022-09-12T19:59:06.704Z,22.58
2022-09-12T20:01:36.896Z,22.58
2022-09-12T20:04:07.550Z,22.60
2022-09-12T20:06:36.700Z,22.59
2022-09-12T20:09:05.339Z,22.60
2022-09-12T20:11:33.745Z,22.57
2022-09-12T20:14:01.992Z,22.51
2022-09-12T20:16:31.100Z,22.44
2022-09-12T20:19:01.694Z,22.43
2022-09-12T20:21:34.097Z,22.42
2022-09-12T20:24:04.726Z,22.40
2022-09-12T20:26:33.097Z,22.38
2022-09-12T20:29:01.662Z,22.35
2022-09-12T20:31:30.462Z,22.32
2022-09-12T20:33:58.873Z,22.25
2022-09-12T20:36:27.450Z,22.12
2022-09-12T20:38:59.906Z,22.03
2022-09-12T20:41:30.304Z,21.95
2022-09-12T20:43:59.209Z,21.76
2022-09-12T20:46:29.182Z,21.54
2022-09-12T20:48:59.405Z,21.29
2022-09-12T20:51:29.657Z,21.01
2022-09-12T20:54:01.044Z,20.82
2022-09-12T20:56:31.703Z,20.67
2022-09-12T20:59:00.987Z,20.51
2022-09-12T21:01:31.280Z,20.43
2022-09-12T21:04:01.393Z,20.37
2022-09-12T21:06:29.679Z,20.35
2022-09-12T21:09:00.509Z,20.35
2022-09-12T21:11:29.611Z,20.35
2022-09-12T21:13:58.414Z,20.34
2022-09-12T21:16:27.304Z,20.31
2022-09-12T21:18:57.465Z,20.29
2022-09-12T21:21:26.490Z,20.27
2022-09-12T21:23:55.320Z,20.23
2022-09-12T21:26:24.744Z,20.16
2022-09-12T21:28:52.815Z,20.06
2022-09-12T21:31:21.187Z,20.02
2022-09-12T21:33:49.422Z,20.03
2022-09-12T21:36:17.602Z,20.03
2022-09-12T21:38:45.706Z,20.00
2022-09-12T21:41:15.729Z,19.99
2022-09-12T21:43:45.469Z,19.99
2022-09-12T21:46:13.815Z,20.01
2022-09-12T21:48:43.990Z,20.00
2022-09-12T21:51:12.141Z,20.03
2022-09-12T21:53:40.448Z,20.03
2022-09-12T21:56:10.428Z,20.00
2022-09-12T21:58:39.263Z,19.99
2022-09-12T22:01:12.338Z,19.98
2022-09-12T22:03:42.995Z,20.00
2022-09-12T22:06:11.121Z,20.01
2022-09-12T22:08:40.463Z,20.04
2022-09-12T22:11:10.391Z,20.07
2022-09-12T22:13:40.051Z,20.12
2022-09-12T22:16:10.389Z,20.15
2022-09-12T22:18:39.492Z,20.19
2022-09-12T22:21:12.283Z,20.25
2022-09-12T22:23:57.987Z,20.27
2022-09-12T22:26:27.011Z,20.28
2022-09-12T22:28:55.356Z,20.27
2022-09-12T22:31:26.912Z,20.23
2022-09-12T22:33:57.368Z,20.18
2022-09-12T22:36:30.432Z,20.17
2022-09-12T22:38:59.683Z,20.15
2022-09-12T22:41:28.384Z,20.14
2022-09-12T22:43:57.516Z,20.14
2022-09-12T22:46:27.488Z,20.10
2022-09-12T22:48:55.946Z,20.08
2022-09-12T22:51:24.025Z,20.08
2022-09-12T22:53:52.497Z,20.06
2022-09-12T22:56:20.557Z,20.08
2022-09-12T22:58:48.714Z,20.12
2022-09-12T23:01:16.888Z,20.15
2022-09-12T23:03:46.520Z,20.18
2022-09-12T23:06:14.680Z,20.20
2022-09-12T23:08:42.815Z,20.22
2022-09-12T23:11:14.573Z,20.23
2022-09-12T23:13:47.305Z,20.23
2022-09-12T23:16:19.902Z,20.23
2022-09-12T23:18:49.823Z,20.21
2022-09-12T23:21:20.763Z,20.23
2022-09-12T23:23:49.010Z,20.22
2022-09-12T23:26:19.278Z,20.20
2022-09-12T23:28:51.100Z,20.16
2022-09-12T23:31:19.504Z,20.00
2022-09-12T23:33:50.115Z,19.83
2022-09-12T23:36:18.154Z,19.68
2022-09-12T23:38:47.997Z,19.58
2022-09-12T23:41:17.950Z,19.51
2022-09-12T23:43:47.009Z,19.42
2022-09-12T23:46:17.086Z,19.34
2022-09-12T23:48:45.918Z,19.31
2022-09-12T23:51:15.939Z,19.29
2022-09-12T23:53:44.130Z,19.26
2022-09-12T23:56:12.573Z,19.22
2022-09-12T23:58:40.618Z,19.18
